Time;durP1;ratioP1;P1;durP2;ratioP2;P2;SDS_P1;SDS_P2;PMS_P1;PMS_P2;Temp;Humidity;BMP_temperature;BMP_pressure;BME280_temperature;BME280_humidity;BME280_pressure;Samples;Min_cycle;Max_cycle;Signal;HPM_P1;HPM_P2
2021/12/12 00:00:39;;;;;;;74.83;17.47;;;;;;;-145.18;100.00;60484.78;5030766;28;20536;-67
2021/12/12 00:03:16;;;;;;;74.77;18.80;;;;;;;-145.18;100.00;60484.78;5035213;28;20369;-67
2021/12/12 00:05:48;;;;;;;73.90;17.83;;;;;;;-145.18;100.00;60484.78;5026065;28;20553;-67
2021/12/12 00:08:15;;;;;;;71.63;19.05;;;;;;;-145.18;100.00;60484.78;5027008;28;20871;-67
2021/12/12 00:10:44;;;;;;;67.33;16.70;;;;;;;-145.18;100.00;60484.78;5021075;28;20025;-67
2021/12/12 00:13:14;;;;;;;72.33;18.97;;;;;;;-145.18;100.00;60484.78;5037766;28;20263;-67
2021/12/12 00:15:40;;;;;;;65.93;17.20;;;;;;;-145.18;100.00;60484.78;5034374;28;20285;-67
2021/12/12 00:18:06;;;;;;;76.57;17.90;;;;;;;-145.18;100.00;60484.78;5040642;28;20271;-67
2021/12/12 00:20:33;;;;;;;72.00;19.33;;;;;;;-145.18;100.00;60484.78;5036994;28;20552;-67
2021/12/12 00:22:59;;;;;;;85.87;18.80;;;;;;;-145.18;100.00;60484.78;5035862;28;20025;-67
2021/12/12 00:25:27;;;;;;;84.50;18.57;;;;;;;-145.18;100.00;60484.78;5040624;28;20526;-67
2021/12/12 00:27:53;;;;;;;78.27;19.57;;;;;;;-145.18;100.00;60484.78;5040784;28;20355;-67
2021/12/12 00:30:19;;;;;;;77.47;17.87;;;;;;;-145.18;100.00;60484.78;5035697;28;20380;-67
2021/12/12 00:32:44;;;;;;;81.73;18.47;;;;;;;-145.18;100.00;60484.78;5022760;28;20054;-67
2021/12/12 00:35:13;;;;;;;80.97;18.97;;;;;;;-145.18;100.00;60484.78;5038355;28;20017;-67
2021/12/12 00:37:38;;;;;;;89.87;19.60;;;;;;;-145.18;100.00;60484.78;5040657;28;20058;-67
2021/12/12 00:40:25;;;;;;;92.20;19.73;;;;;;;-145.18;100.00;60484.78;5040111;28;20327;-67
2021/12/12 00:42:54;;;;;;;88.13;20.33;;;;;;;-145.18;100.00;60484.78;5048089;28;20032;-67
2021/12/12 00:45:22;;;;;;;87.23;19.67;;;;;;;-145.18;100.00;60484.78;5040288;28;20333;-67
2021/12/12 00:47:47;;;;;;;109.17;22.33;;;;;;;-145.18;100.00;60484.78;5038225;28;20275;-67
2021/12/12 00:50:25;;;;;;;93.77;20.47;;;;;;;-145.18;100.00;60484.78;5021301;28;20802;-67
2021/12/12 00:52:51;;;;;;;90.03;19.30;;;;;;;-145.18;100.00;60484.78;5033741;28;20043;-67
2021/12/12 00:55:17;;;;;;;86.47;19.70;;;;;;;-145.18;100.00;60484.78;5022729;28;20347;-67
2021/12/12 00:57:49;;;;;;;90.23;19.30;;;;;;;-145.18;100.00;60484.78;5046306;28;20631;-67
2021/12/12 01:00:15;;;;;;;96.95;20.13;;;;;;;-145.18;100.00;60484.78;5040085;28;20197;-67
2021/12/12 01:02:40;;;;;;;88.87;19.57;;;;;;;-145.18;100.00;60484.78;5036514;28;20145;-67
2021/12/12 01:05:08;;;;;;;90.43;19.57;;;;;;;-145.18;100.00;60484.78;5020219;28;20462;-67
2021/12/12 01:07:37;;;;;;;92.23;20.30;;;;;;;-145.18;100.00;60484.78;5027768;28;20144;-67
2021/12/12 01:10:12;;;;;;;71.53;19.03;;;;;;;-145.18;100.00;60484.78;5020062;28;20286;-67
2021/12/12 01:12:38;;;;;;;77.37;19.50;;;;;;;-145.18;100.00;60484.78;5040768;28;20274;-67
2021/12/12 01:15:15;;;;;;;73.20;17.33;;;;;;;-145.18;100.00;60484.78;5042732;28;20267;-67
2021/12/12 01:17:44;;;;;;;82.33;19.97;;;;;;;-145.18;100.00;60484.78;5036614;28;20264;-67
2021/12/12 01:20:36;;;;;;;89.80;19.60;;;;;;;-145.18;100.00;60484.78;5026750;28;20566;-67
2021/12/12 01:23:14;;;;;;;81.45;19.23;;;;;;;-145.18;100.00;60484.78;5032132;28;20515;-67
2021/12/12 01:25:44;;;;;;;80.93;18.90;;;;;;;-145.18;100.00;60484.78;5023618;28;20801;-67
2021/12/12 01:28:17;;;;;;;89.93;20.70;;;;;;;-145.18;100.00;60484.78;5046800;28;20264;-67
2021/12/12 01:30:43;;;;;;;92.28;20.23;;;;;;;-145.18;100.00;60484.78;5036237;28;20766;-67
2021/12/12 01:33:10;;;;;;;86.33;21.60;;;;;;;-145.18;100.00;60484.78;5026546;28;20390;-67
2021/12/12 01:35:38;;;;;;;88.50;20.53;;;;;;;-145.18;100.00;60484.78;5029801;28;20636;-67
2021/12/12 01:40:57;;;;;;;87.93;21.60;;;;;;;-145.18;100.00;60484.78;5034161;28;20333;-67
2021/12/12 01:43:33;;;;;;;73.97;18.87;;;;;;;-145.18;100.00;60484.78;5024725;28;20548;-67
2021/12/12 01:46:11;;;;;;;72.77;19.50;;;;;;;-145.18;100.00;60484.78;5023032;28;20761;-67
2021/12/12 01:48:45;;;;;;;89.23;22.20;;;;;;;-145.18;100.00;60484.78;5030810;28;20264;-67
2021/12/12 01:51:11;;;;;;;73.77;19.27;;;;;;;-145.18;100.00;60484.78;5028687;28;20464;-67
2021/12/12 01:53:42;;;;;;;76.20;20.40;;;;;;;-145.18;100.00;60484.78;5043043;28;20263;-67
2021/12/12 01:56:17;;;;;;;74.03;19.47;;;;;;;-145.18;100.00;60484.78;5042522;28;20268;-67
2021/12/12 01:58:45;;;;;;;74.60;20.53;;;;;;;-145.18;100.00;60484.78;5044084;28;20263;-67
2021/12/12 02:01:16;;;;;;;63.50;18.30;;;;;;;-145.18;100.00;60484.78;5041783;28;20601;-67
2021/12/12 02:03:46;;;;;;;73.87;19.47;;;;;;;-145.18;100.00;60484.78;5040896;23;20303;-71
2021/12/12 02:06:15;;;;;;;76.50;19.90;;;;;;;-145.18;100.00;60484.78;5057314;28;20758;-71
2021/12/12 02:08:42;;;;;;;66.40;18.50;;;;;;;-145.18;100.00;60484.78;5052954;28;20272;-71
2021/12/12 02:11:13;;;;;;;72.47;18.27;;;;;;;-145.18;100.00;60484.78;5055660;28;20334;-71
2021/12/12 02:13:42;;;;;;;71.73;20.00;;;;;;;-145.18;100.00;60484.78;5059733;28;20782;-71
2021/12/12 02:16:09;;;;;;;73.53;20.37;;;;;;;-145.18;100.00;60484.78;5059192;28;20746;-71
2021/12/12 02:18:38;;;;;;;69.23;19.73;;;;;;;-145.18;100.00;60484.78;5059696;28;20298;-72
2021/12/12 02:21:24;;;;;;;73.30;21.00;;;;;;;-145.18;100.00;60484.78;5059318;28;20344;-71
2021/12/12 02:37:24;;;;;;;61.10;16.33;;;;;;;-145.18;100.00;60484.78;5058804;28;20277;-72
2021/12/12 02:39:50;;;;;;;53.10;17.70;;;;;;;-145.18;100.00;60484.78;5059429;28;20666;-71
2021/12/12 02:42:18;;;;;;;49.97;16.73;;;;;;;-145.18;100.00;60484.78;5059107;28;20263;-71
2021/12/12 02:44:45;;;;;;;54.73;17.07;;;;;;;-145.18;100.00;60484.78;5057729;28;20275;-71
2021/12/12 02:47:18;;;;;;;55.23;17.13;;;;;;;-145.18;100.00;60484.78;5058416;28;20353;-71
2021/12/12 02:52:23;;;;;;;54.80;16.20;;;;;;;-145.18;100.00;60484.78;5048884;28;20992;-71
2021/12/12 02:54:48;;;;;;;;;;;;;;;-145.18;100.00;60484.78;5059395;28;20267;-71
2021/12/12 02:57:17;;;;;;;56.80;16.87;;;;;;;-145.18;100.00;60484.78;5058578;28;19919;-71
2021/12/12 02:59:50;;;;;;;43.97;16.10;;;;;;;-145.18;100.00;60484.78;5058808;28;20032;-71
2021/12/12 03:02:23;;;;;;;48.30;15.33;;;;;;;-145.18;100.00;60484.78;5058586;28;20338;-71
2021/12/12 03:04:49;;;;;;;44.80;16.30;;;;;;;-145.18;100.00;60484.78;5058436;28;20371;-72
2021/12/12 03:07:15;;;;;;;46.73;14.77;;;;;;;-145.18;100.00;60484.78;5058431;28;20302;-71
2021/12/12 03:09:45;;;;;;;39.93;15.70;;;;;;;-145.18;100.00;60484.78;5058593;28;20305;-72
2021/12/12 03:12:18;;;;;;;38.70;14.57;;;;;;;-145.18;100.00;60484.78;5058276;28;20121;-72
2021/12/12 03:14:46;;;;;;;46.50;15.93;;;;;;;-145.18;100.00;60484.78;5058484;28;20262;-72
2021/12/12 03:17:17;;;;;;;42.57;13.97;;;;;;;-145.18;100.00;60484.78;5058201;28;20259;-71
2021/12/12 03:19:59;;;;;;;38.73;13.23;;;;;;;-145.18;100.00;60484.78;5058968;28;20263;-69
2021/12/12 03:22:26;;;;;;;44.63;14.52;;;;;;;-145.18;100.00;60484.78;5058144;28;20293;-69
2021/12/12 03:24:52;;;;;;;38.07;12.93;;;;;;;-145.18;100.00;60484.78;5058216;28;20265;-69
2021/12/12 03:27:20;;;;;;;36.20;12.57;;;;;;;-145.18;100.00;60484.78;5057846;28;20286;-69
2021/12/12 03:29:49;;;;;;;39.43;11.83;;;;;;;-145.18;100.00;60484.78;5057891;28;20523;-69
2021/12/12 03:32:17;;;;;;;34.47;12.77;;;;;;;-145.18;100.00;60484.78;5057845;28;20321;-69
2021/12/12 03:34:48;;;;;;;36.33;12.53;;;;;;;-145.18;100.00;60484.78;5057870;28;20418;-69
2021/12/12 03:37:17;;;;;;;32.57;11.23;;;;;;;-145.18;100.00;60484.78;5057882;28;20278;-69
2021/12/12 03:39:47;;;;;;;32.17;10.90;;;;;;;-145.18;100.00;60484.78;5045052;28;20649;-69
2021/12/12 03:42:19;;;;;;;29.77;11.20;;;;;;;-145.18;100.00;60484.78;5057407;28;20289;-68
2021/12/12 03:44:45;;;;;;;35.97;10.90;;;;;;;-145.18;100.00;60484.78;5058232;28;20882;-69
2021/12/12 03:47:23;;;;;;;28.57;10.37;;;;;;;-145.18;100.00;60484.78;5058369;28;20362;-71
2021/12/12 03:49:50;;;;;;;30.27;10.90;;;;;;;-145.18;100.00;60484.78;5057684;28;20288;-71
2021/12/12 03:52:17;;;;;;;27.13;10.33;;;;;;;-145.18;100.00;60484.78;5057802;28;20294;-71
2021/12/12 03:54:44;;;;;;;34.80;11.07;;;;;;;-145.18;100.00;60484.78;5058116;28;20289;-71
2021/12/12 03:57:10;;;;;;;23.23;9.00;;;;;;;-145.18;100.00;60484.78;5053619;28;20252;-71
2021/12/12 03:59:35;;;;;;;25.53;9.20;;;;;;;-145.18;100.00;60484.78;5048212;28;20108;-70
2021/12/12 04:02:03;;;;;;;28.03;9.37;;;;;;;-145.18;100.00;60484.78;5058215;28;20049;-70
2021/12/12 04:04:33;;;;;;;26.23;9.47;;;;;;;-145.18;100.00;60484.78;5050382;28;20135;-71
2021/12/12 04:07:02;;;;;;;25.07;10.03;;;;;;;-145.18;100.00;60484.78;5056566;28;20275;-71
2021/12/12 04:09:27;;;;;;;24.93;9.63;;;;;;;-145.18;100.00;60484.78;5057736;28;20750;-70
2021/12/12 04:11:59;;;;;;;29.70;8.77;;;;;;;-145.18;100.00;60484.78;5057571;28;20343;-70
2021/12/12 04:14:25;;;;;;;25.15;9.27;;;;;;;-145.18;100.00;60484.78;5058029;28;20182;-71
2021/12/12 04:16:55;;;;;;;24.10;9.10;;;;;;;-145.18;100.00;60484.78;5057544;28;20069;-71
2021/12/12 04:19:20;;;;;;;22.90;9.30;;;;;;;-145.18;100.00;60484.78;5057607;28;20035;-70
2021/12/12 04:21:46;;;;;;;30.10;10.63;;;;;;;-145.18;100.00;60484.78;5057635;28;20742;-69
2021/12/12 04:24:20;;;;;;;25.70;7.87;;;;;;;-145.18;100.00;60484.78;5058212;28;20600;-69
2021/12/12 04:26:45;;;;;;;24.30;8.43;;;;;;;-145.18;100.00;60484.78;5057848;28;20032;-69
2021/12/12 04:29:17;;;;;;;26.27;9.10;;;;;;;-145.18;100.00;60484.78;5057794;28;20329;-69
2021/12/12 04:31:48;;;;;;;23.50;9.30;;;;;;;-145.18;100.00;60484.78;5056761;28;20465;-69
2021/12/12 04:34:14;;;;;;;30.17;8.67;;;;;;;-145.18;100.00;60484.78;5057677;28;20029;-69
2021/12/12 04:36:43;;;;;;;25.47;7.57;;;;;;;-145.18;100.00;60484.78;5057560;28;20352;-69
2021/12/12 04:39:25;;;;;;;20.90;8.07;;;;;;;-145.18;100.00;60484.78;5057760;28;20017;-69
2021/12/12 04:41:59;;;;;;;20.52;7.75;;;;;;;-145.18;100.00;60484.78;5057282;28;20964;-69
2021/12/12 04:44:30;;;;;;;18.63;6.20;;;;;;;-145.18;100.00;60484.78;5057565;28;20492;-69
2021/12/12 04:49:56;;;;;;;23.77;6.80;;;;;;;-145.18;100.00;60484.78;5051253;28;20282;-69
2021/12/12 04:52:42;;;;;;;15.47;6.07;;;;;;;-145.18;100.00;60484.78;5059676;28;20184;-69
2021/12/12 04:55:29;;;;;;;22.17;7.33;;;;;;;-145.18;100.00;60484.78;5061418;28;20271;-69
2021/12/12 04:58:09;;;;;;;18.87;7.03;;;;;;;-145.18;100.00;60484.78;5060758;28;20416;-68
2021/12/12 05:00:49;;;;;;;21.47;6.40;;;;;;;-145.18;100.00;60484.78;5060685;28;20521;-69
2021/12/12 05:03:22;;;;;;;15.63;6.10;;;;;;;-145.18;100.00;60484.78;5060759;28;20620;-69
2021/12/12 05:05:54;;;;;;;22.03;6.30;;;;;;;-145.18;100.00;60484.78;5061028;28;20802;-68
2021/12/12 05:08:35;;;;;;;19.40;7.72;;;;;;;-145.18;100.00;60484.78;5060614;28;20259;-69
2021/12/12 05:11:17;;;;;;;24.07;7.30;;;;;;;-145.18;100.00;60484.78;5060610;28;20078;-69
2021/12/12 05:13:49;;;;;;;21.35;6.95;;;;;;;-145.18;100.00;60484.78;5060591;28;20338;-68
2021/12/12 05:16:20;;;;;;;22.75;7.93;;;;;;;-145.18;100.00;60484.78;5060437;28;20032;-68
2021/12/12 05:18:52;;;;;;;19.47;6.70;;;;;;;-145.18;100.00;60484.78;5060903;28;20020;-69
2021/12/12 05:21:25;;;;;;;16.17;5.85;;;;;;;-145.18;100.00;60484.78;5060476;28;20442;-69
2021/12/12 05:23:55;;;;;;;17.00;5.83;;;;;;;-145.18;100.00;60484.78;5061009;28;20029;-69
2021/12/12 05:26:27;;;;;;;18.57;6.00;;;;;;;-145.18;100.00;60484.78;5060368;28;20300;-69
2021/12/12 05:29:03;;;;;;;19.77;7.03;;;;;;;-145.18;100.00;60484.78;5060553;28;20286;-70
2021/12/12 05:31:30;;;;;;;17.40;5.93;;;;;;;-145.18;100.00;60484.78;5059601;28;20222;-69
2021/12/12 05:33:56;;;;;;;20.13;5.37;;;;;;;-145.18;100.00;60484.78;5060517;28;20262;-68
2021/12/12 05:36:22;;;;;;;18.27;5.97;;;;;;;-145.18;100.00;60484.78;5060250;28;20270;-69
2021/12/12 05:38:49;;;;;;;19.93;5.50;;;;;;;-145.18;100.00;60484.78;5060552;28;20035;-68
2021/12/12 05:41:18;;;;;;;20.37;6.57;;;;;;;-145.18;100.00;60484.78;5060609;28;20267;-69
2021/12/12 05:43:46;;;;;;;15.47;4.83;;;;;;;-145.18;100.00;60484.78;5060004;28;20577;-69
2021/12/12 05:46:15;;;;;;;15.40;6.03;;;;;;;-145.18;100.00;60484.78;5060596;28;20365;-69
2021/12/12 05:48:44;;;;;;;16.97;5.30;;;;;;;-145.18;100.00;60484.78;5060217;28;20277;-69
2021/12/12 05:51:09;;;;;;;15.60;5.30;;;;;;;-145.18;100.00;60484.78;5058937;28;20282;-68
2021/12/12 05:53:35;;;;;;;16.77;5.27;;;;;;;-145.18;100.00;60484.78;5059687;28;20275;-69
2021/12/12 05:56:01;;;;;;;13.83;4.97;;;;;;;-145.18;100.00;60484.78;5060693;28;20024;-69
2021/12/12 05:58:27;;;;;;;15.40;6.17;;;;;;;-145.18;100.00;60484.78;5059526;28;20637;-69
2021/12/12 06:00:56;;;;;;;21.40;5.23;;;;;;;-145.18;100.00;60484.78;5060060;28;20028;-69
2021/12/12 06:03:26;;;;;;;16.30;5.30;;;;;;;-145.18;100.00;60484.78;5058867;28;20039;-68
2021/12/12 06:05:54;;;;;;;24.90;6.07;;;;;;;-145.18;100.00;60484.78;5049437;28;20100;-68
2021/12/12 06:08:22;;;;;;;15.90;5.33;;;;;;;-145.18;100.00;60484.78;5059798;28;20270;-69
2021/12/12 06:10:48;;;;;;;15.87;5.47;;;;;;;-145.18;100.00;60484.78;5059222;28;20356;-68
2021/12/12 06:13:16;;;;;;;18.03;6.17;;;;;;;-145.18;100.00;60484.78;5059119;28;20575;-69
2021/12/12 06:15:50;;;;;;;17.53;5.50;;;;;;;-145.18;100.00;60484.78;5059811;28;20036;-69
2021/12/12 06:18:16;;;;;;;18.47;5.23;;;;;;;-145.18;100.00;60484.78;5059359;28;20646;-68
2021/12/12 06:20:43;;;;;;;23.93;6.10;;;;;;;-145.18;100.00;60484.78;5059895;28;20507;-68
2021/12/12 06:23:10;;;;;;;19.17;5.83;;;;;;;-145.18;100.00;60484.78;5058890;28;20270;-69
2021/12/12 06:25:37;;;;;;;16.00;5.40;;;;;;;-145.18;100.00;60484.78;5059051;28;20424;-69
2021/12/12 06:28:11;;;;;;;15.60;5.30;;;;;;;-145.18;100.00;60484.78;5059200;28;20097;-68
2021/12/12 06:30:37;;;;;;;16.27;5.60;;;;;;;-145.18;100.00;60484.78;5059454;28;20286;-68
2021/12/12 06:33:04;;;;;;;23.63;5.63;;;;;;;-145.18;100.00;60484.78;5048182;28;20289;-69
2021/12/12 06:35:30;;;;;;;18.43;5.50;;;;;;;-145.18;100.00;60484.78;5059050;28;20470;-68
2021/12/12 06:38:02;;;;;;;20.27;5.47;;;;;;;-145.18;100.00;60484.78;5058960;28;20264;-69
2021/12/12 06:40:28;;;;;;;14.23;5.95;;;;;;;-145.18;100.00;60484.78;5059234;28;20269;-69
2021/12/12 06:42:54;;;;;;;15.00;5.60;;;;;;;-145.18;100.00;60484.78;5059131;28;20058;-69
2021/12/12 06:45:20;;;;;;;18.80;5.70;;;;;;;-145.18;100.00;60484.78;5058692;28;20605;-69
2021/12/12 06:47:46;;;;;;;20.10;6.57;;;;;;;-145.18;100.00;60484.78;5058959;28;20266;-69
2021/12/12 06:50:13;;;;;;;18.60;5.40;;;;;;;-145.18;100.00;60484.78;5058756;28;20028;-68
2021/12/12 06:52:39;;;;;;;17.87;5.53;;;;;;;-145.18;100.00;60484.78;5058955;28;20507;-69
2021/12/12 06:55:09;;;;;;;23.90;5.47;;;;;;;-145.18;100.00;60484.78;5058545;28;20293;-69
2021/12/12 06:57:35;;;;;;;13.97;4.40;;;;;;;-145.18;100.00;60484.78;5058662;28;20267;-68
2021/12/12 07:00:01;;;;;;;22.53;5.90;;;;;;;-145.18;100.00;60484.78;5059006;28;20329;-68
2021/12/12 07:02:27;;;;;;;18.10;6.17;;;;;;;-145.18;100.00;60484.78;5058453;28;20428;-68
2021/12/12 07:04:53;;;;;;;17.80;5.60;;;;;;;-145.18;100.00;60484.78;5047648;28;20033;-68
2021/12/12 07:07:19;;;;;;;18.33;6.70;;;;;;;-145.18;100.00;60484.78;5058019;28;20375;-68
2021/12/12 07:09:47;;;;;;;17.03;6.17;;;;;;;-145.18;100.00;60484.78;5057740;28;20692;-68
2021/12/12 07:12:15;;;;;;;19.13;5.57;;;;;;;-145.18;100.00;60484.78;5058425;28;20088;-68
2021/12/12 07:14:43;;;;;;;19.30;5.40;;;;;;;-145.18;100.00;60484.78;5058191;28;20750;-68
2021/12/12 07:17:09;;;;;;;17.13;5.03;;;;;;;-145.18;100.00;60484.78;5058380;28;20720;-68
2021/12/12 07:19:37;;;;;;;23.10;5.73;;;;;;;-145.18;100.00;60484.78;5058546;28;20324;-68
2021/12/12 07:22:04;;;;;;;14.63;5.83;;;;;;;-145.18;100.00;60484.78;5058452;28;20309;-68
2021/12/12 07:24:30;;;;;;;16.90;6.40;;;;;;;-145.18;100.00;60484.78;5058497;28;20031;-68
2021/12/12 07:26:58;;;;;;;21.87;5.23;;;;;;;-145.18;100.00;60484.78;5057629;28;20534;-69
2021/12/12 07:29:24;;;;;;;22.87;6.67;;;;;;;-145.18;100.00;60484.78;5058172;28;20373;-68
2021/12/12 07:31:50;;;;;;;15.60;5.57;;;;;;;-145.18;100.00;60484.78;5058269;28;20031;-68
2021/12/12 07:34:16;;;;;;;14.93;5.27;;;;;;;-145.18;100.00;60484.78;5058419;28;20440;-68
2021/12/12 07:36:51;;;;;;;17.63;5.73;;;;;;;-145.18;100.00;60484.78;5057620;28;20028;-68
2021/12/12 07:39:19;;;;;;;17.37;6.07;;;;;;;-145.18;100.00;60484.78;5058171;28;20293;-68
2021/12/12 07:41:47;;;;;;;17.30;5.30;;;;;;;-145.18;100.00;60484.78;5057902;28;20556;-69
2021/12/12 07:44:14;;;;;;;13.57;5.70;;;;;;;-145.18;100.00;60484.78;5058277;28;20495;-69
2021/12/12 07:46:42;;;;;;;17.13;4.73;;;;;;;-145.18;100.00;60484.78;5057764;28;20050;-68
2021/12/12 07:49:08;;;;;;;17.17;5.60;;;;;;;-145.18;100.00;60484.78;5058059;28;20593;-69
2021/12/12 07:51:37;;;;;;;13.77;5.20;;;;;;;-145.18;100.00;60484.78;5057329;28;20299;-68
2021/12/12 07:54:04;;;;;;;14.37;5.63;;;;;;;-145.18;100.00;60484.78;5058211;28;20029;-68
2021/12/12 07:56:32;;;;;;;16.50;5.00;;;;;;;-145.18;100.00;60484.78;5051781;28;20196;-68
2021/12/12 07:59:00;;;;;;;11.67;5.00;;;;;;;-145.18;100.00;60484.78;5058031;28;20040;-68
2021/12/12 08:01:26;;;;;;;11.50;4.30;;;;;;;-145.18;100.00;60484.78;5057340;28;20033;-68
2021/12/12 08:03:54;;;;;;;13.37;4.97;;;;;;;-145.18;100.00;60484.78;5054070;28;20371;-68
2021/12/12 08:06:20;;;;;;;13.90;5.80;;;;;;;-145.18;100.00;60484.78;5051264;28;20282;-69
2021/12/12 08:08:47;;;;;;;13.47;5.27;;;;;;;-145.18;100.00;60484.78;5047715;28;20111;-68
2021/12/12 08:11:19;;;;;;;12.63;5.53;;;;;;;-145.18;100.00;60484.78;5057750;28;20204;-69
2021/12/12 08:13:45;;;;;;;15.37;5.50;;;;;;;-145.18;100.00;60484.78;5057981;28;20256;-69
2021/12/12 08:16:13;;;;;;;18.33;6.07;;;;;;;-145.18;100.00;60484.78;5057808;28;20397;-69
2021/12/12 08:18:39;;;;;;;13.23;5.13;;;;;;;-145.18;100.00;60484.78;5057436;28;20099;-69
2021/12/12 08:21:06;;;;;;;12.40;5.53;;;;;;;-145.18;100.00;60484.78;5059623;28;20028;-68
2021/12/12 08:23:32;;;;;;;15.23;5.57;;;;;;;-145.18;100.00;60484.78;5061330;28;20588;-69
2021/12/12 08:25:58;;;;;;;14.20;5.07;;;;;;;-145.18;100.00;60484.78;5062187;28;20024;-69
2021/12/12 08:28:24;;;;;;;13.93;5.03;;;;;;;-145.18;100.00;60484.78;5061375;28;20023;-69
2021/12/12 08:30:51;;;;;;;12.30;4.63;;;;;;;-145.18;100.00;60484.78;5061880;28;20025;-69
2021/12/12 08:33:17;;;;;;;11.97;5.47;;;;;;;-145.18;100.00;60484.78;5061566;28;20090;-69
2021/12/12 08:35:43;;;;;;;9.80;4.67;;;;;;;-145.18;100.00;60484.78;5061602;28;20582;-69
2021/12/12 08:38:10;;;;;;;10.10;4.07;;;;;;;-145.18;100.00;60484.78;5061315;28;20279;-69
2021/12/12 08:40:43;;;;;;;9.47;4.50;;;;;;;-145.18;100.00;60484.78;5061717;28;20032;-69
2021/12/12 08:43:12;;;;;;;8.83;3.80;;;;;;;-145.18;100.00;60484.78;5061731;28;20036;-69
2021/12/12 08:45:46;;;;;;;8.23;3.80;;;;;;;-145.18;100.00;60484.78;5061488;28;20056;-69
2021/12/12 08:48:17;;;;;;;9.30;4.40;;;;;;;-145.18;100.00;60484.78;5061118;28;20035;-69
2021/12/12 08:50:45;;;;;;;9.77;4.27;;;;;;;-145.18;100.00;60484.78;5061412;28;20029;-69
2021/12/12 08:53:11;;;;;;;9.40;4.17;;;;;;;-145.18;100.00;60484.78;5061315;28;20033;-69
2021/12/12 08:55:43;;;;;;;6.77;3.23;;;;;;;-145.18;100.00;60484.78;5061533;28;20035;-69
2021/12/12 08:58:15;;;;;;;10.85;4.22;;;;;;;-145.18;100.00;60484.78;5060774;28;20043;-69
2021/12/12 09:01:04;;;;;;;10.15;5.03;;;;;;;-145.18;100.00;60484.78;5061574;28;20419;-69
2021/12/12 09:03:38;;;;;;;9.57;4.53;;;;;;;-145.18;100.00;60484.78;5060488;28;20028;-69
2021/12/12 09:06:05;;;;;;;9.43;4.40;;;;;;;-145.18;100.00;60484.78;5061434;28;20564;-69
2021/12/12 09:08:50;;;;;;;8.50;4.50;;;;;;;-145.18;100.00;60484.78;5060921;28;20064;-69
2021/12/12 09:11:18;;;;;;;8.03;4.40;;;;;;;-145.18;100.00;60484.78;5060756;28;20235;-69
2021/12/12 09:13:56;;;;;;;11.87;4.50;;;;;;;-145.18;100.00;60484.78;5061122;28;20056;-69
2021/12/12 09:16:29;;;;;;;7.97;3.40;;;;;;;-145.18;100.00;60484.78;5060836;28;20519;-69
2021/12/12 09:19:03;;;;;;;;;;;;;;;-145.18;100.00;60484.78;5061117;28;20476;-69
2021/12/12 09:21:50;;;;;;;12.63;4.23;;;;;;;-145.18;100.00;60484.78;5060428;28;20352;-69
2021/12/12 09:24:32;;;;;;;9.30;4.10;;;;;;;-145.18;100.00;60484.78;5060804;28;20020;-69
2021/12/12 09:27:03;;;;;;;9.48;4.22;;;;;;;-145.18;100.00;60484.78;5060645;28;20338;-69
2021/12/12 09:29:36;;;;;;;9.02;4.05;;;;;;;-145.18;100.00;60484.78;5060389;28;20101;-69
2021/12/12 09:32:03;;;;;;;;;;;;;;;-145.18;100.00;60484.78;5060169;28;20021;-69
2021/12/12 09:34:43;;;;;;;8.00;4.07;;;;;;;-145.18;100.00;60484.78;5060863;28;19989;-69
2021/12/12 09:37:30;;;;;;;10.63;4.53;;;;;;;-145.18;100.00;60484.78;5060679;28;20052;-69
2021/12/12 09:40:15;;;;;;;8.33;4.53;;;;;;;-145.18;100.00;60484.78;5049413;28;20055;-69
2021/12/12 09:42:40;;;;;;;9.13;4.63;;;;;;;-145.18;100.00;60484.78;5060210;28;20108;-69
2021/12/12 09:45:37;;;;;;;9.87;4.47;;;;;;;-145.18;100.00;60484.78;5060626;28;20140;-69
2021/12/12 09:51:40;;;;;;;10.47;4.90;;;;;;;-145.18;100.00;60484.78;5037184;28;20033;-69
2021/12/12 09:54:31;;;;;;;10.03;4.87;;;;;;;-145.18;100.00;60484.78;5060421;28;20028;-69
2021/12/12 09:57:17;;;;;;;8.70;4.63;;;;;;;-145.18;100.00;60484.78;5060239;28;20583;-69
2021/12/12 10:00:08;;;;;;;10.83;4.90;;;;;;;-145.18;100.00;60484.78;5059770;28;20024;-69
2021/12/12 10:02:39;;;;;;;14.77;6.07;;;;;;;-145.18;100.00;60484.78;5051835;28;20028;-69
2021/12/12 10:05:13;;;;;;;12.57;5.77;;;;;;;-145.18;100.00;60484.78;5049298;28;20040;-69
2021/12/12 10:07:49;;;;;;;12.07;6.13;;;;;;;-145.18;100.00;60484.78;5059867;28;20181;-69
2021/12/12 10:10:24;;;;;;;10.33;4.97;;;;;;;-145.18;100.00;60484.78;5060119;28;20088;-69
2021/12/12 10:13:06;;;;;;;12.70;5.77;;;;;;;-145.18;100.00;60484.78;5059346;28;20111;-69
2021/12/12 10:15:40;;;;;;;10.65;5.70;;;;;;;-145.18;100.00;60484.78;5058555;28;20115;-69
2021/12/12 10:18:18;;;;;;;11.23;5.53;;;;;;;-145.18;100.00;60484.78;5059111;28;20067;-69
2021/12/12 10:21:10;;;;;;;15.47;6.80;;;;;;;-145.18;100.00;60484.78;5059568;28;20032;-69
2021/12/12 10:23:45;;;;;;;12.32;5.82;;;;;;;-145.18;100.00;60484.78;5048023;28;20624;-69
2021/12/12 10:26:20;;;;;;;13.33;5.77;;;;;;;-145.18;100.00;60484.78;5058772;28;20032;-69
2021/12/12 10:28:56;;;;;;;13.73;6.60;;;;;;;-145.18;100.00;60484.78;5059614;28;20032;-69
2021/12/12 10:31:34;;;;;;;14.13;6.57;;;;;;;-145.18;100.00;60484.78;5058891;28;20489;-69
2021/12/12 10:33:59;;;;;;;14.30;6.73;;;;;;;-145.18;100.00;60484.78;5059892;28;20122;-69
2021/12/12 10:36:35;;;;;;;15.50;7.50;;;;;;;-145.18;100.00;60484.78;5059194;28;20071;-69
2021/12/12 10:39:16;;;;;;;14.90;7.43;;;;;;;-145.18;100.00;60484.78;5059543;28;20028;-69
2021/12/12 10:41:49;;;;;;;13.70;6.13;;;;;;;-145.18;100.00;60484.78;5059014;28;20789;-69
2021/12/12 10:44:22;;;;;;;;;;;;;;;-145.18;100.00;60484.78;5058823;28;20373;-69
2021/12/12 10:46:55;;;;;;;14.47;6.83;;;;;;;-145.18;100.00;60484.78;5059108;28;20404;-69
2021/12/12 10:49:35;;;;;;;14.83;6.70;;;;;;;-145.18;100.00;60484.78;5059103;28;20308;-69
2021/12/12 10:52:35;;;;;;;13.23;7.13;;;;;;;-145.18;100.00;60484.78;5058269;28;20021;-69
2021/12/12 10:55:18;;;;;;;14.53;6.70;;;;;;;-145.18;100.00;60484.78;5016079;28;20099;-69
2021/12/12 10:57:52;;;;;;;13.13;7.13;;;;;;;-145.18;100.00;60484.78;5016126;28;20532;-69
2021/12/12 11:00:25;;;;;;;14.47;7.47;;;;;;;-145.18;100.00;60484.78;5016264;28;20567;-69
2021/12/12 11:03:01;;;;;;;13.60;6.73;;;;;;;-145.18;100.00;60484.78;5015812;28;20029;-69
2021/12/12 11:05:45;;;;;;;15.10;7.10;;;;;;;5.50;100.00;-19310.78;5137040;27;20333;-69
2021/12/12 11:08:59;;;;;;;15.87;7.47;;;;;;;5.51;100.00;-19310.91;5116919;27;20045;-69
2021/12/12 11:11:28;;;;;;;;;;;;;;;5.54;100.00;-19311.84;5012690;28;20041;-69
2021/12/12 11:14:12;;;;;;;14.10;6.73;;;;;;;5.55;100.00;-19311.97;5023849;28;19913;-69
2021/12/12 11:16:46;;;;;;;15.60;7.70;;;;;;;5.63;100.00;-19314.09;5016270;28;20095;-69
2021/12/12 11:19:30;;;;;;;17.13;7.77;;;;;;;5.65;100.00;-19314.63;5020268;28;20025;-69
2021/12/12 11:22:04;;;;;;;16.80;8.73;;;;;;;5.66;100.00;-19314.88;4999623;28;20041;-69
2021/12/12 11:24:35;;;;;;;15.20;8.03;;;;;;;5.67;100.00;-19315.16;5011969;28;20335;-69
2021/12/12 11:27:10;;;;;;;16.33;7.43;;;;;;;5.73;100.00;-19316.75;5008685;28;20220;-68
2021/12/12 11:29:41;;;;;;;22.27;9.77;;;;;;;5.77;100.00;-19317.81;5012152;28;20065;-68
2021/12/12 11:32:11;;;;;;;20.23;9.57;;;;;;;5.77;100.00;-19317.81;5012365;28;20029;-68
2021/12/12 11:34:43;;;;;;;19.00;8.23;;;;;;;5.82;100.00;-19319.00;5011991;28;20034;-68
2021/12/12 11:37:33;;;;;;;13.20;6.63;;;;;;;5.97;100.00;-19322.84;5012391;28;20759;-67
2021/12/12 11:40:30;;;;;;;13.30;7.17;;;;;;;6.00;100.00;-19323.63;5001098;28;20029;-68
2021/12/12 11:43:14;;;;;;;14.87;7.50;;;;;;;6.02;100.00;-19324.16;5006166;28;20038;-68
2021/12/12 11:45:45;;;;;;;14.53;7.60;;;;;;;6.10;100.00;-19326.41;5006539;28;20406;-68